sensor_id;sensor_type;location;lat;lon;timestamp;pressure;altitude;pressure_sealevel;temperature;humidity
66681;BME280;53575;51.366;12.350;2022-12-11T00:01:10;99782.09;;;-1.48;97.26
66681;BME280;53575;51.366;12.350;2022-12-11T00:03:35;99793.59;;;-1.61;96.60
66681;BME280;53575;51.366;12.350;2022-12-11T00:06:07;99789.56;;;-1.54;97.48
66681;BME280;53575;51.366;12.350;2022-12-11T00:08:33;99787.97;;;-1.51;96.35
66681;BME280;53575;51.366;12.350;2022-12-11T00:10:58;99789.88;;;-1.45;95.79
66681;BME280;53575;51.366;12.350;2022-12-11T00:13:24;99783.00;;;-1.46;94.92
66681;BME280;53575;51.366;12.350;2022-12-11T00:15:49;99785.91;;;-1.61;95.02
66681;BME280;53575;51.366;12.350;2022-12-11T00:18:15;99782.38;;;-1.64;95.33
66681;BME280;53575;51.366;12.350;2022-12-11T00:20:41;99788.84;;;-1.50;96.20
66681;BME280;53575;51.366;12.350;2022-12-11T00:23:06;99788.69;;;-1.55;95.65
66681;BME280;53575;51.366;12.350;2022-12-11T00:25:32;99786.72;;;-1.62;95.48
66681;BME280;53575;51.366;12.350;2022-12-11T00:27:58;99782.28;;;-1.67;94.90
66681;BME280;53575;51.366;12.350;2022-12-11T00:30:23;99783.00;;;-1.72;95.42
66681;BME280;53575;51.366;12.350;2022-12-11T00:32:50;99787.16;;;-1.75;95.20
66681;BME280;53575;51.366;12.350;2022-12-11T00:35:16;99789.25;;;-1.63;94.82
66681;BME280;53575;51.366;12.350;2022-12-11T00:37:41;99788.56;;;-1.58;94.21
66681;BME280;53575;51.366;12.350;2022-12-11T00:40:07;99788.97;;;-1.45;93.18
66681;BME280;53575;51.366;12.350;2022-12-11T00:42:33;99788.69;;;-1.55;92.08
66681;BME280;53575;51.366;12.350;2022-12-11T00:44:58;99782.59;;;-1.58;93.00
66681;BME280;53575;51.366;12.350;2022-12-11T00:47:24;99785.00;;;-1.63;92.51
66681;BME280;53575;51.366;12.350;2022-12-11T00:49:49;99789.97;;;-1.67;93.20
66681;BME280;53575;51.366;12.350;2022-12-11T00:52:15;99791.22;;;-1.56;92.11
66681;BME280;53575;51.366;12.350;2022-12-11T00:54:41;99786.09;;;-1.56;92.61
66681;BME280;53575;51.366;12.350;2022-12-11T00:57:07;99786.72;;;-1.62;93.45
66681;BME280;53575;51.366;12.350;2022-12-11T00:59:32;99789.91;;;-1.69;93.50
66681;BME280;53575;51.366;12.350;2022-12-11T01:01:58;99790.13;;;-1.63;93.63
66681;BME280;53575;51.366;12.350;2022-12-11T01:04:23;99784.03;;;-1.66;94.11
66681;BME280;53575;51.366;12.350;2022-12-11T01:06:49;99788.53;;;-1.59;93.88
66681;BME280;53575;51.366;12.350;2022-12-11T01:09:14;99792.56;;;-1.66;93.82
66681;BME280;53575;51.366;12.350;2022-12-11T01:11:58;99790.00;;;-1.66;93.61
66681;BME280;53575;51.366;12.350;2022-12-11T01:14:25;99794.31;;;-1.65;94.24
66681;BME280;53575;51.366;12.350;2022-12-11T01:16:51;99795.13;;;-1.66;93.83
66681;BME280;53575;51.366;12.350;2022-12-11T01:19:16;99799.13;;;-1.74;93.79
66681;BME280;53575;51.366;12.350;2022-12-11T01:21:42;99798.97;;;-1.79;94.75
66681;BME280;53575;51.366;12.350;2022-12-11T01:24:07;99799.16;;;-1.73;94.27
66681;BME280;53575;51.366;12.350;2022-12-11T01:26:33;99801.38;;;-1.58;94.71
66681;BME280;53575;51.366;12.350;2022-12-11T01:28:58;99805.63;;;-1.58;95.05
66681;BME280;53575;51.366;12.350;2022-12-11T01:31:24;99799.50;;;-1.63;94.52
66681;BME280;53575;51.366;12.350;2022-12-11T01:33:53;99796.88;;;-1.65;94.66
66681;BME280;53575;51.366;12.350;2022-12-11T01:36:19;99800.28;;;-1.64;95.52
66681;BME280;53575;51.366;12.350;2022-12-11T01:38:46;99801.47;;;-1.56;93.73
66681;BME280;53575;51.366;12.350;2022-12-11T01:41:12;99794.69;;;-1.54;93.57
66681;BME280;53575;51.366;12.350;2022-12-11T01:44:02;99799.44;;;-1.65;93.55
66681;BME280;53575;51.366;12.350;2022-12-11T01:46:29;99802.00;;;-1.65;93.76
66681;BME280;53575;51.366;12.350;2022-12-11T01:48:55;99802.00;;;-1.65;92.64
66681;BME280;53575;51.366;12.350;2022-12-11T01:51:22;99810.81;;;-1.57;92.36
66681;BME280;53575;51.366;12.350;2022-12-11T01:53:52;99812.00;;;-1.47;91.76
66681;BME280;53575;51.366;12.350;2022-12-11T01:56:19;99813.66;;;-1.73;92.52
66681;BME280;53575;51.366;12.350;2022-12-11T01:58:48;99816.22;;;-1.73;92.97
66681;BME280;53575;51.366;12.350;2022-12-11T02:01:27;99816.31;;;-1.72;92.96
66681;BME280;53575;51.366;12.350;2022-12-11T02:03:55;99801.38;;;-1.58;92.45
66681;BME280;53575;51.366;12.350;2022-12-11T02:08:59;99800.56;;;-1.57;92.51
66681;BME280;53575;51.366;12.350;2022-12-11T02:11:34;99800.38;;;-1.63;93.02
66681;BME280;53575;51.366;12.350;2022-12-11T02:14:14;99803.31;;;-1.76;93.33
66681;BME280;53575;51.366;12.350;2022-12-11T02:16:55;99804.28;;;-1.73;94.07
66681;BME280;53575;51.366;12.350;2022-12-11T02:22:12;99801.69;;;-1.74;93.18
66681;BME280;53575;51.366;12.350;2022-12-11T02:24:52;99802.09;;;-1.62;93.64
66681;BME280;53575;51.366;12.350;2022-12-11T02:27:29;99800.09;;;-1.70;93.30
66681;BME280;53575;51.366;12.350;2022-12-11T02:30:06;99800.47;;;-1.84;93.29
66681;BME280;53575;51.366;12.350;2022-12-11T02:32:46;99802.84;;;-1.64;94.18
66681;BME280;53575;51.366;12.350;2022-12-11T02:35:21;99794.94;;;-1.47;94.64
66681;BME280;53575;51.366;12.350;2022-12-11T02:37:56;99795.50;;;-1.55;93.73
66681;BME280;53575;51.366;12.350;2022-12-11T02:40:25;99793.50;;;-1.64;92.48
66681;BME280;53575;51.366;12.350;2022-12-11T02:42:53;99797.66;;;-1.67;92.69
66681;BME280;53575;51.366;12.350;2022-12-11T02:45:23;99799.81;;;-1.54;92.16
66681;BME280;53575;51.366;12.350;2022-12-11T02:47:51;99794.44;;;-1.60;91.78
66681;BME280;53575;51.366;12.350;2022-12-11T02:50:19;99804.03;;;-1.56;91.09
66681;BME280;53575;51.366;12.350;2022-12-11T02:52:47;99802.06;;;-1.63;90.37
66681;BME280;53575;51.366;12.350;2022-12-11T02:55:15;99793.06;;;-1.52;91.04
66681;BME280;53575;51.366;12.350;2022-12-11T02:57:46;99800.47;;;-1.60;90.35
66681;BME280;53575;51.366;12.350;2022-12-11T03:00:12;99799.28;;;-1.69;91.56
66681;BME280;53575;51.366;12.350;2022-12-11T03:02:39;99796.00;;;-1.65;90.24
66681;BME280;53575;51.366;12.350;2022-12-11T03:05:06;99796.88;;;-1.65;89.67
66681;BME280;53575;51.366;12.350;2022-12-11T03:07:34;99798.25;;;-1.75;87.95
66681;BME280;53575;51.366;12.350;2022-12-11T03:10:00;99793.50;;;-1.64;86.93
66681;BME280;53575;51.366;12.350;2022-12-11T03:12:36;99796.72;;;-1.69;87.15
66681;BME280;53575;51.366;12.350;2022-12-11T03:15:04;99794.00;;;-1.74;85.80
66681;BME280;53575;51.366;12.350;2022-12-11T03:23:07;99779.53;;;-1.48;82.89
66681;BME280;53575;51.366;12.350;2022-12-11T03:25:41;99786.63;;;-1.65;83.69
66681;BME280;53575;51.366;12.350;2022-12-11T03:28:17;99775.41;;;-1.68;83.42
66681;BME280;53575;51.366;12.350;2022-12-11T03:30:45;99783.31;;;-1.62;83.79
66681;BME280;53575;51.366;12.350;2022-12-11T03:33:14;99775.31;;;-1.72;84.02
66681;BME280;53575;51.366;12.350;2022-12-11T03:35:43;99773.63;;;-1.71;83.87
66681;BME280;53575;51.366;12.350;2022-12-11T03:38:15;99765.59;;;-1.56;83.23
66681;BME280;53575;51.366;12.350;2022-12-11T03:40:43;99765.25;;;-1.65;83.49
66681;BME280;53575;51.366;12.350;2022-12-11T03:43:10;99785.38;;;-1.76;83.88
66681;BME280;53575;51.366;12.350;2022-12-11T03:45:37;99782.63;;;-1.82;83.55
66681;BME280;53575;51.366;12.350;2022-12-11T03:48:03;99782.03;;;-1.75;83.06
66681;BME280;53575;51.366;12.350;2022-12-11T03:50:30;99780.59;;;-1.67;83.17
66681;BME280;53575;51.366;12.350;2022-12-11T03:52:57;99787.66;;;-1.60;82.40
66681;BME280;53575;51.366;12.350;2022-12-11T03:55:25;99777.81;;;-1.48;81.84
66681;BME280;53575;51.366;12.350;2022-12-11T03:57:52;99775.47;;;-1.67;81.60
66681;BME280;53575;51.366;12.350;2022-12-11T04:00:19;99769.00;;;-1.81;82.45
66681;BME280;53575;51.366;12.350;2022-12-11T04:02:45;99780.25;;;-1.76;80.74
66681;BME280;53575;51.366;12.350;2022-12-11T04:05:30;99785.50;;;-1.73;80.35
66681;BME280;53575;51.366;12.350;2022-12-11T04:07:56;99782.09;;;-1.98;82.37
66681;BME280;53575;51.366;12.350;2022-12-11T04:10:21;99778.31;;;-1.83;82.51
66681;BME280;53575;51.366;12.350;2022-12-11T04:12:46;99777.16;;;-1.91;80.87
66681;BME280;53575;51.366;12.350;2022-12-11T04:15:12;99778.69;;;-1.97;82.38
66681;BME280;53575;51.366;12.350;2022-12-11T04:17:37;99771.19;;;-1.92;81.92
66681;BME280;53575;51.366;12.350;2022-12-11T04:20:21;99774.00;;;-1.84;80.54
66681;BME280;53575;51.366;12.350;2022-12-11T04:23:13;99780.31;;;-1.99;82.40
66681;BME280;53575;51.366;12.350;2022-12-11T04:28:29;99778.13;;;-2.13;82.61
66681;BME280;53575;51.366;12.350;2022-12-11T04:30:54;99786.97;;;-2.28;81.93
66681;BME280;53575;51.366;12.350;2022-12-11T04:33:20;99779.41;;;-2.25;83.23
66681;BME280;53575;51.366;12.350;2022-12-11T04:35:45;99783.44;;;-2.31;83.91
66681;BME280;53575;51.366;12.350;2022-12-11T04:38:11;99780.50;;;-2.18;84.49
66681;BME280;53575;51.366;12.350;2022-12-11T04:40:36;99779.03;;;-2.11;82.65
66681;BME280;53575;51.366;12.350;2022-12-11T04:43:02;99770.16;;;-1.97;81.88
66681;BME280;53575;51.366;12.350;2022-12-11T04:45:27;99782.63;;;-2.06;81.48
66681;BME280;53575;51.366;12.350;2022-12-11T04:47:52;99783.56;;;-2.04;80.96
66681;BME280;53575;51.366;12.350;2022-12-11T04:50:18;99779.41;;;-2.01;81.61
66681;BME280;53575;51.366;12.350;2022-12-11T04:52:44;99783.28;;;-2.12;80.03
66681;BME280;53575;51.366;12.350;2022-12-11T04:55:10;99778.63;;;-2.22;80.63
66681;BME280;53575;51.366;12.350;2022-12-11T04:57:35;99781.38;;;-2.17;81.39
66681;BME280;53575;51.366;12.350;2022-12-11T05:00:02;99782.41;;;-2.12;80.05
66681;BME280;53575;51.366;12.350;2022-12-11T05:02:29;99776.63;;;-2.07;81.17
66681;BME280;53575;51.366;12.350;2022-12-11T05:04:54;99767.25;;;-2.06;79.27
66681;BME280;53575;51.366;12.350;2022-12-11T05:07:20;99776.69;;;-2.05;80.22
66681;BME280;53575;51.366;12.350;2022-12-11T05:09:45;99773.47;;;-2.00;79.80
66681;BME280;53575;51.366;12.350;2022-12-11T05:12:11;99769.72;;;-2.09;79.18
66681;BME280;53575;51.366;12.350;2022-12-11T05:14:36;99766.19;;;-2.13;80.67
66681;BME280;53575;51.366;12.350;2022-12-11T05:17:01;99769.06;;;-2.04;79.47
66681;BME280;53575;51.366;12.350;2022-12-11T05:19:27;99764.75;;;-2.05;79.51
66681;BME280;53575;51.366;12.350;2022-12-11T05:21:52;99767.25;;;-2.06;79.87
66681;BME280;53575;51.366;12.350;2022-12-11T05:24:18;99768.56;;;-1.93;79.58
66681;BME280;53575;51.366;12.350;2022-12-11T05:26:44;99762.84;;;-2.10;79.29
66681;BME280;53575;51.366;12.350;2022-12-11T05:29:09;99761.38;;;-2.04;78.49
66681;BME280;53575;51.366;12.350;2022-12-11T05:31:34;99753.94;;;-1.98;79.08
66681;BME280;53575;51.366;12.350;2022-12-11T05:34:00;99754.56;;;-2.03;80.09
66681;BME280;53575;51.366;12.350;2022-12-11T05:36:28;99753.22;;;-2.17;78.33
66681;BME280;53575;51.366;12.350;2022-12-11T05:38:54;99744.84;;;-2.13;79.44
66681;BME280;53575;51.366;12.350;2022-12-11T05:41:22;99746.63;;;-2.11;79.35
66681;BME280;53575;51.366;12.350;2022-12-11T05:43:47;99747.22;;;-2.18;81.86
66681;BME280;53575;51.366;12.350;2022-12-11T05:46:18;99748.97;;;-2.17;80.31
66681;BME280;53575;51.366;12.350;2022-12-11T05:48:45;99752.84;;;-2.04;78.70
66681;BME280;53575;51.366;12.350;2022-12-11T05:51:12;99751.16;;;-2.28;79.78
66681;BME280;53575;51.366;12.350;2022-12-11T05:53:39;99747.31;;;-2.15;80.20
66681;BME280;53575;51.366;12.350;2022-12-11T05:56:09;99746.41;;;-2.17;80.23
66681;BME280;53575;51.366;12.350;2022-12-11T05:58:35;99741.78;;;-2.27;81.51
66681;BME280;53575;51.366;12.350;2022-12-11T06:01:01;99743.31;;;-2.32;82.65
66681;BME280;53575;51.366;12.350;2022-12-11T06:03:31;99742.91;;;-2.19;81.92
66681;BME280;53575;51.366;12.350;2022-12-11T06:05:56;99742.22;;;-2.15;82.29
66681;BME280;53575;51.366;12.350;2022-12-11T06:08:21;99731.34;;;-2.09;82.46
66681;BME280;53575;51.366;12.350;2022-12-11T06:10:48;99740.03;;;-2.04;81.81
66681;BME280;53575;51.366;12.350;2022-12-11T06:13:15;99735.94;;;-2.23;82.55
66681;BME280;53575;51.366;12.350;2022-12-11T06:15:41;99736.50;;;-2.32;84.08
66681;BME280;53575;51.366;12.350;2022-12-11T06:18:06;99741.63;;;-2.32;84.12
66681;BME280;53575;51.366;12.350;2022-12-11T06:20:33;99739.19;;;-2.29;84.53
66681;BME280;53575;51.366;12.350;2022-12-11T06:22:59;99736.78;;;-2.24;84.31
66681;BME280;53575;51.366;12.350;2022-12-11T06:25:25;99741.03;;;-2.25;85.21
66681;BME280;53575;51.366;12.350;2022-12-11T06:27:51;99741.06;;;-2.23;86.01
66681;BME280;53575;51.366;12.350;2022-12-11T06:30:16;99740.97;;;-2.26;84.54
66681;BME280;53575;51.366;12.350;2022-12-11T06:32:42;99734.06;;;-2.29;83.92
66681;BME280;53575;51.366;12.350;2022-12-11T06:35:08;99738.63;;;-2.20;84.92
66681;BME280;53575;51.366;12.350;2022-12-11T06:37:35;99730.31;;;-2.37;85.41
66681;BME280;53575;51.366;12.350;2022-12-11T06:40:02;99738.50;;;-2.23;84.44
66681;BME280;53575;51.366;12.350;2022-12-11T06:42:29;99728.16;;;-2.26;84.44
66681;BME280;53575;51.366;12.350;2022-12-11T06:44:55;99731.66;;;-2.24;83.97
66681;BME280;53575;51.366;12.350;2022-12-11T06:47:22;99735.63;;;-2.32;85.15
66681;BME280;53575;51.366;12.350;2022-12-11T06:49:47;99739.09;;;-2.30;85.18
66681;BME280;53575;51.366;12.350;2022-12-11T06:52:12;99743.41;;;-2.05;83.76
66681;BME280;53575;51.366;12.350;2022-12-11T06:54:38;99749.88;;;-2.15;84.19
66681;BME280;53575;51.366;12.350;2022-12-11T06:57:03;99743.13;;;-2.37;85.75
66681;BME280;53575;51.366;12.350;2022-12-11T06:59:29;99748.34;;;-2.34;86.35
66681;BME280;53575;51.366;12.350;2022-12-11T07:01:55;99748.97;;;-2.17;86.38
66681;BME280;53575;51.366;12.350;2022-12-11T07:04:20;99749.06;;;-2.14;86.23
66681;BME280;53575;51.366;12.350;2022-12-11T07:06:49;99746.16;;;-1.99;86.07
66681;BME280;53575;51.366;12.350;2022-12-11T07:09:14;99758.63;;;-2.10;87.09
66681;BME280;53575;51.366;12.350;2022-12-11T07:11:40;99754.63;;;-2.02;86.39
66681;BME280;53575;51.366;12.350;2022-12-11T07:14:05;99756.75;;;-2.14;86.84
66681;BME280;53575;51.366;12.350;2022-12-11T07:16:31;99754.81;;;-2.21;87.28
66681;BME280;53575;51.366;12.350;2022-12-11T07:18:56;99757.91;;;-2.06;86.41
66681;BME280;53575;51.366;12.350;2022-12-11T07:21:22;99750.66;;;-1.93;86.19
66681;BME280;53575;51.366;12.350;2022-12-11T07:23:48;99749.19;;;-2.11;86.48
66681;BME280;53575;51.366;12.350;2022-12-11T07:26:15;99759.38;;;-2.12;86.45
66681;BME280;53575;51.366;12.350;2022-12-11T07:28:42;99772.34;;;-2.08;86.48
66681;BME280;53575;51.366;12.350;2022-12-11T07:31:19;99776.63;;;-2.07;87.86
66681;BME280;53575;51.366;12.350;2022-12-11T07:33:45;99775.31;;;-2.43;88.35
66681;BME280;53575;51.366;12.350;2022-12-11T07:36:12;99772.44;;;-2.29;87.54
66681;BME280;53575;51.366;12.350;2022-12-11T07:38:39;99775.53;;;-2.37;89.15
66681;BME280;53575;51.366;12.350;2022-12-11T07:41:07;99774.03;;;-2.08;87.34
66681;BME280;53575;51.366;12.350;2022-12-11T07:43:33;99775.13;;;-2.02;87.14
66681;BME280;53575;51.366;12.350;2022-12-11T07:46:04;99773.59;;;-1.97;85.95
66681;BME280;53575;51.366;12.350;2022-12-11T07:48:29;99771.69;;;-2.02;86.06
66681;BME280;53575;51.366;12.350;2022-12-11T07:50:55;99769.97;;;-1.78;85.64
66681;BME280;53575;51.366;12.350;2022-12-11T07:53:20;99772.03;;;-1.67;84.61
66681;BME280;53575;51.366;12.350;2022-12-11T07:55:46;99765.41;;;-1.61;83.45
66681;BME280;53575;51.366;12.350;2022-12-11T07:58:11;99770.22;;;-1.70;83.30
66681;BME280;53575;51.366;12.350;2022-12-11T08:00:37;99765.75;;;-2.01;85.05
66681;BME280;53575;51.366;12.350;2022-12-11T08:03:02;99769.88;;;-1.81;84.61
66681;BME280;53575;51.366;12.350;2022-12-11T08:05:28;99775.91;;;-1.79;83.73
66681;BME280;53575;51.366;12.350;2022-12-11T08:07:54;99776.19;;;-1.71;83.42
66681;BME280;53575;51.366;12.350;2022-12-11T08:10:20;99775.47;;;-1.67;82.67
66681;BME280;53575;51.366;12.350;2022-12-11T08:12:47;99771.25;;;-1.65;83.81
66681;BME280;53575;51.366;12.350;2022-12-11T08:15:12;99779.63;;;-1.70;83.22
66681;BME280;53575;51.366;12.350;2022-12-11T08:17:38;99782.19;;;-1.70;82.75
66681;BME280;53575;51.366;12.350;2022-12-11T08:20:04;99778.19;;;-1.62;81.18
66681;BME280;53575;51.366;12.350;2022-12-11T08:22:30;99768.94;;;-1.57;81.54
66681;BME280;53575;51.366;12.350;2022-12-11T08:24:55;99776.47;;;-1.62;80.71
66681;BME280;53575;51.366;12.350;2022-12-11T08:27:22;99768.34;;;-1.50;79.95
66681;BME280;53575;51.366;12.350;2022-12-11T08:29:47;99778.00;;;-1.41;80.66
66681;BME280;53575;51.366;12.350;2022-12-11T08:32:12;99774.66;;;-1.40;80.54
66681;BME280;53575;51.366;12.350;2022-12-11T08:34:40;99765.13;;;-1.44;79.42
66681;BME280;53575;51.366;12.350;2022-12-11T08:37:06;99769.56;;;-1.39;80.39
66681;BME280;53575;51.366;12.350;2022-12-11T08:39:31;99763.53;;;-1.41;80.50
66681;BME280;53575;51.366;12.350;2022-12-11T08:41:57;99769.06;;;-1.54;80.94
66681;BME280;53575;51.366;12.350;2022-12-11T08:44:22;99772.22;;;-1.61;79.21
66681;BME280;53575;51.366;12.350;2022-12-11T08:46:50;99767.97;;;-1.61;78.55
66681;BME280;53575;51.366;12.350;2022-12-11T08:49:17;99770.28;;;-1.68;78.21
66681;BME280;53575;51.366;12.350;2022-12-11T08:51:42;99775.41;;;-1.43;78.91
66681;BME280;53575;51.366;12.350;2022-12-11T08:54:08;99765.47;;;-1.59;78.80
66681;BME280;53575;51.366;12.350;2022-12-11T08:56:33;99773.59;;;-1.45;79.60
66681;BME280;53575;51.366;12.350;2022-12-11T08:59:00;99780.53;;;-1.43;79.24
66681;BME280;53575;51.366;12.350;2022-12-11T09:01:26;99777.59;;;-1.28;78.41
66681;BME280;53575;51.366;12.350;2022-12-11T09:03:53;99775.94;;;-1.26;79.34
66681;BME280;53575;51.366;12.350;2022-12-11T09:06:23;99781.97;;;-1.26;78.18
66681;BME280;53575;51.366;12.350;2022-12-11T09:08:48;99774.91;;;-1.06;78.61
66681;BME280;53575;51.366;12.350;2022-12-11T09:11:18;99772.44;;;-1.03;78.23
66681;BME280;53575;51.366;12.350;2022-12-11T09:13:43;99778.59;;;-0.98;78.02
66681;BME280;53575;51.366;12.350;2022-12-11T09:16:11;99776.41;;;-1.12;76.16
66681;BME280;53575;51.366;12.350;2022-12-11T09:18:38;99778.59;;;-0.98;78.92
66681;BME280;53575;51.366;12.350;2022-12-11T09:21:11;99779.78;;;-1.13;79.02
66681;BME280;53575;51.366;12.350;2022-12-11T09:23:40;99771.84;;;-0.94;78.13
66681;BME280;53575;51.366;12.350;2022-12-11T09:26:07;99773.44;;;-0.98;77.63
66681;BME280;53575;51.366;12.350;2022-12-11T09:28:34;99773.31;;;-0.74;75.82
66681;BME280;53575;51.366;12.350;2022-12-11T09:31:00;99779.91;;;-0.83;76.67
66681;BME280;53575;51.366;12.350;2022-12-11T09:33:25;99772.00;;;-0.89;76.49
66681;BME280;53575;51.366;12.350;2022-12-11T09:36:01;99773.00;;;-0.84;76.79
66681;BME280;53575;51.366;12.350;2022-12-11T09:38:27;99760.72;;;-0.66;76.89
66681;BME280;53575;51.366;12.350;2022-12-11T09:40:52;99759.19;;;-0.61;76.69
66681;BME280;53575;51.366;12.350;2022-12-11T09:43:36;99766.44;;;-0.46;76.95
66681;BME280;53575;51.366;12.350;2022-12-11T09:46:06;99767.84;;;-0.57;75.60
66681;BME280;53575;51.366;12.350;2022-12-11T09:48:34;99777.53;;;-0.47;75.17
66681;BME280;53575;51.366;12.350;2022-12-11T09:51:08;99768.25;;;-0.43;75.68
66681;BME280;53575;51.366;12.350;2022-12-11T09:53:37;99768.69;;;-0.85;78.05
66681;BME280;53575;51.366;12.350;2022-12-11T09:56:10;99758.56;;;-0.81;78.17
66681;BME280;53575;51.366;12.350;2022-12-11T10:01:53;99762.81;;;-0.83;77.32
66681;BME280;53575;51.366;12.350;2022-12-11T10:15:02;99741.03;;;-0.67;80.98
66681;BME280;53575;51.366;12.350;2022-12-11T10:17:35;99738.81;;;-1.12;77.95
66681;BME280;53575;51.366;12.350;2022-12-11T10:20:25;99744.88;;;-1.10;78.34
66681;BME280;53575;51.366;12.350;2022-12-11T10:22:53;99745.00;;;-1.05;78.16
66681;BME280;53575;51.366;12.350;2022-12-11T10:25:31;99744.16;;;-1.06;79.03
66681;BME280;53575;51.366;12.350;2022-12-11T10:27:56;99752.94;;;-1.25;80.37
66681;BME280;53575;51.366;12.350;2022-12-11T10:30:24;99739.47;;;-0.90;80.09
66681;BME280;53575;51.366;12.350;2022-12-11T10:33:13;99739.28;;;-0.96;80.57
66681;BME280;53575;51.366;12.350;2022-12-11T10:35:58;99737.81;;;-0.88;79.68
66681;BME280;53575;51.366;12.350;2022-12-11T10:38:25;99747.00;;;-0.68;79.26
66681;BME280;53575;51.366;12.350;2022-12-11T10:40:57;99741.34;;;-0.85;80.32
66681;BME280;53575;51.366;12.350;2022-12-11T10:43:39;99743.88;;;-0.86;80.55
66681;BME280;53575;51.366;12.350;2022-12-11T10:46:14;99745.13;;;-1.02;80.40
66681;BME280;53575;51.366;12.350;2022-12-11T10:51:11;99737.75;;;-0.91;80.83
66681;BME280;53575;51.366;12.350;2022-12-11T10:53:37;99733.88;;;-0.77;80.76
66681;BME280;53575;51.366;12.350;2022-12-11T10:56:04;99729.59;;;-0.78;79.87
66681;BME280;53575;51.366;12.350;2022-12-11T10:58:31;99734.44;;;-0.59;78.37
66681;BME280;53575;51.366;12.350;2022-12-11T11:01:02;99731.97;;;-0.56;77.30
66681;BME280;53575;51.366;12.350;2022-12-11T11:03:29;99726.47;;;-0.68;77.76
66681;BME280;53575;51.366;12.350;2022-12-11T11:06:11;99715.28;;;-0.70;77.85
66681;BME280;53575;51.366;12.350;2022-12-11T11:08:42;99714.03;;;-0.54;78.32
66681;BME280;53575;51.366;12.350;2022-12-11T11:11:35;99719.91;;;-0.28;78.62
66681;BME280;53575;51.366;12.350;2022-12-11T11:14:19;99717.31;;;-0.60;77.18
66681;BME280;53575;51.366;12.350;2022-12-11T11:16:48;99707.72;;;-0.35;77.13
66681;BME280;53575;51.366;12.350;2022-12-11T11:19:24;99705.13;;;-0.37;76.97
66681;BME280;53575;51.366;12.350;2022-12-11T11:21:54;99708.88;;;-0.24;77.50
66681;BME280;53575;51.366;12.350;2022-12-11T11:24:25;99703.38;;;-0.06;77.03
66681;BME280;53575;51.366;12.350;2022-12-11T11:26:52;99698.69;;;-0.22;76.49
66681;BME280;53575;51.366;12.350;2022-12-11T11:29:36;99702.47;;;-0.70;76.82
66681;BME280;53575;51.366;12.350;2022-12-11T11:32:36;99702.56;;;-0.67;77.41
66681;BME280;53575;51.366;12.350;2022-12-11T11:37:39;99703.84;;;-0.81;79.50
66681;BME280;53575;51.366;12.350;2022-12-11T11:40:12;99696.88;;;-0.85;80.00
66681;BME280;53575;51.366;12.350;2022-12-11T11:42:51;99696.97;;;-0.82;80.51
66681;BME280;53575;51.366;12.350;2022-12-11T11:45:24;99697.81;;;-0.83;80.57
66681;BME280;53575;51.366;12.350;2022-12-11T11:48:09;99693.78;;;-0.74;78.75
66681;BME280;53575;51.366;12.350;2022-12-11T11:50:43;99685.88;;;-0.81;78.61
66681;BME280;53575;51.366;12.350;2022-12-11T11:53:18;99682.56;;;-0.77;79.15
66681;BME280;53575;51.366;12.350;2022-12-11T11:56:20;99681.31;;;-0.91;79.78
66681;BME280;53575;51.366;12.350;2022-12-11T11:58:48;99676.13;;;-0.93;79.31
66681;BME280;53575;51.366;12.350;2022-12-11T12:01:18;99679.66;;;-0.89;78.94
66681;BME280;53575;51.366;12.350;2022-12-11T12:03:45;99682.69;;;-1.03;79.55
66681;BME280;53575;51.366;12.350;2022-12-11T12:09:18;99679.25;;;-0.75;79.38
66681;BME280;53575;51.366;12.350;2022-12-11T12:20:08;99681.28;;;-1.21;81.69
66681;BME280;53575;51.366;12.350;2022-12-11T12:22:56;99676.63;;;-1.06;81.76
66681;BME280;53575;51.366;12.350;2022-12-11T12:25:29;99674.09;;;-1.05;80.20
66681;BME280;53575;51.366;12.350;2022-12-11T12:28:04;99677.50;;;-1.04;79.87
66681;BME280;53575;51.366;12.350;2022-12-11T12:36:26;99671.28;;;-1.12;82.29
66681;BME280;53575;51.366;12.350;2022-12-11T12:45:22;99671.63;;;-1.02;81.51
66681;BME280;53575;51.366;12.350;2022-12-11T12:47:50;99670.91;;;-0.96;81.73
66681;BME280;53575;51.366;12.350;2022-12-11T12:50:19;99670.66;;;-1.05;82.21
66681;BME280;53575;51.366;12.350;2022-12-11T12:52:46;99665.53;;;-1.05;82.34
66681;BME280;53575;51.366;12.350;2022-12-11T12:55:17;99660.50;;;-1.02;83.51
66681;BME280;53575;51.366;12.350;2022-12-11T12:57:56;99654.16;;;-1.13;84.09
66681;BME280;53575;51.366;12.350;2022-12-11T13:02:54;99644.91;;;-1.37;84.42
66681;BME280;53575;51.366;12.350;2022-12-11T13:05:28;99641.25;;;-1.16;84.32
66681;BME280;53575;51.366;12.350;2022-12-11T13:07:57;99634.25;;;-1.22;83.38
66681;BME280;53575;51.366;12.350;2022-12-11T13:10:30;99635.19;;;-1.18;84.46
66681;BME280;53575;51.366;12.350;2022-12-11T13:12:57;99634.72;;;-1.07;82.95
66681;BME280;53575;51.366;12.350;2022-12-11T13:17:49;99638.88;;;-0.80;81.07
66681;BME280;53575;51.366;12.350;2022-12-11T13:20:17;99638.16;;;-0.76;81.01
66681;BME280;53575;51.366;12.350;2022-12-11T13:23:16;99641.09;;;-0.92;81.62
66681;BME280;53575;51.366;12.350;2022-12-11T13:25:47;99648.44;;;-1.05;84.08
66681;BME280;53575;51.366;12.350;2022-12-11T13:28:54;99643.91;;;-1.13;83.81
66681;BME280;53575;51.366;12.350;2022-12-11T13:33:46;99637.63;;;-1.23;82.74
66681;BME280;53575;51.366;12.350;2022-12-11T13:38:45;99650.56;;;-1.47;84.56
66681;BME280;53575;51.366;12.350;2022-12-11T13:41:11;99645.78;;;-1.08;84.19
66681;BME280;53575;51.366;12.350;2022-12-11T13:43:40;99651.22;;;-0.97;83.08
66681;BME280;53575;51.366;12.350;2022-12-11T13:46:07;99644.91;;;-1.08;83.45
66681;BME280;53575;51.366;12.350;2022-12-11T13:48:41;99645.69;;;-1.11;80.97
66681;BME280;53575;51.366;12.350;2022-12-11T13:51:19;99644.59;;;-1.19;81.39
66681;BME280;53575;51.366;12.350;2022-12-11T13:53:45;99643.50;;;-1.27;81.33
66681;BME280;53575;51.366;12.350;2022-12-11T13:56:21;99641.88;;;-1.52;83.14
66681;BME280;53575;51.366;12.350;2022-12-11T13:58:47;99641.91;;;-1.51;83.68
66681;BME280;53575;51.366;12.350;2022-12-11T14:01:22;99644.44;;;-1.52;84.64
66681;BME280;53575;51.366;12.350;2022-12-11T14:04:06;99650.22;;;-1.85;84.83
66681;BME280;53575;51.366;12.350;2022-12-11T14:06:58;99647.75;;;-1.82;85.30